Terminal Aerodrome Forecast
Issued by NWS Mt. Holly, NJ

Home | Current Version | Previous Version | Text Only | Print | Product List | Glossary On
Versions: 1 2 3 4 5 6 7 8 9 10 11 12 13 14 15 16 17 18 19 20
000
FTUS41 KPHI 252300
TAFTTN
TAF
KTTN 252321Z 2600/2624 24005KT P6SM BKN070
     FM260400 27007KT P6SM SKC
     FM261400 31016G26KT P6SM SCT050
     FM262300 33010KT P6SM SKC=

USA.gov is the U.S. government's official web portal to all federal, state and local government web resources and services.